map of SXF home
SXF - Airport
Location
City:  Berlin, Brandenburg, Germany
Near (Alt.):Schönefeld
Name:Berlin Schönefeld Airport
Old (Alt.):Berlin Brandenburg International Airport
ICAO:EDDB
IATA:SXF

Details
Type:Airport (Flugplatz, Airfield)
Use:Public/Civil, International (customs port of entry)
Latitude:52°22'42"N (52.378333)
Longitude:13°31'14"E (13.520556)
Elevation:157 ft (48 m)
Variation:3.81°E (WMM2015 magnetic declination)
0.13° annual change
Runways:1
Longest:11811 × 148 ft (3600 × 45 m), paved

Time
Time Zone:UTC+1 (DST+2)
Local Time:

Weather
METAR:EDDB 162020Z 24007KT CAVOK 02/01 Q1010 TEMPO BKN012
TAF:EDDB 161700Z 1618/1718 27008KT 8000 BKN015
TEMPO 1618/1714 2800 -SHSNRA BKN008CB

Related Locations
Nearby:
Farthest:CHT: 11684 mi / 18803 km
Waitangi [Tuuta], CIT, NZ

Find:

   beyond  
but within

Other Information
Maps:
NOTAMs:
Links:
Sources:

  
flag of Germany
flag of Brandenburg
flag of Berlin
  

Sectional Chart

Flight Planning
at skyvector.com

Satellite Image

Google Maps Satellite view

 

Copyright © 2004-2017 Karl L. Swartz. All rights reserved.
The Great Circle Mapper name and logo are trademarks of the Great Circle Mapper.
All other trademarks mentioned herein belong to their respective owners.
Please see credits for attibutions and further copyright information.

  Follow gcmap on Facebook Follow gcmap on Twitter Follow gcmap on Google+ GCmap on LinkedIn

hCard Microformat

Geo Microformat